sensor_id;sensor_type;location;lat;lon;timestamp;P1;durP1;ratioP1;P2;durP2;ratioP2
21339;SDS011;10828;47.064;15.422;2023-05-10T05:00:07;10.20;;;4.63;;
21339;SDS011;10828;47.064;15.422;2023-05-10T05:02:35;16.07;;;5.20;;
21339;SDS011;10828;47.064;15.422;2023-05-10T05:07:30;16.17;;;5.83;;
21339;SDS011;10828;47.064;15.422;2023-05-10T05:09:58;27.77;;;5.83;;
21339;SDS011;10828;47.064;15.422;2023-05-10T05:12:25;15.90;;;5.70;;
21339;SDS011;10828;47.064;15.422;2023-05-10T05:14:51;9.63;;;5.33;;
21339;SDS011;10828;47.064;15.422;2023-05-10T05:17:17;10.33;;;5.33;;
21339;SDS011;10828;47.064;15.422;2023-05-10T05:19:42;10.23;;;5.47;;
21339;SDS011;10828;47.064;15.422;2023-05-10T05:22:08;12.93;;;5.33;;
21339;SDS011;10828;47.064;15.422;2023-05-10T05:24:36;11.50;;;5.80;;
21339;SDS011;10828;47.064;15.422;2023-05-10T05:27:04;14.03;;;5.90;;
21339;SDS011;10828;47.064;15.422;2023-05-10T05:29:29;15.77;;;5.43;;
21339;SDS011;10828;47.064;15.422;2023-05-10T05:31:55;20.33;;;6.20;;
21339;SDS011;10828;47.064;15.422;2023-05-10T05:34:21;15.07;;;5.77;;
21339;SDS011;10828;47.064;15.422;2023-05-10T05:36:48;19.00;;;6.23;;
21339;SDS011;10828;47.064;15.422;2023-05-10T05:39:14;10.63;;;5.77;;
21339;SDS011;10828;47.064;15.422;2023-05-10T05:41:40;14.27;;;6.07;;
21339;SDS011;10828;47.064;15.422;2023-05-10T05:44:07;21.40;;;5.63;;
21339;SDS011;10828;47.064;15.422;2023-05-10T05:46:39;17.50;;;5.33;;
21339;SDS011;10828;47.064;15.422;2023-05-10T05:49:06;16.57;;;5.67;;
21339;SDS011;10828;47.064;15.422;2023-05-10T05:51:33;14.20;;;5.63;;
21339;SDS011;10828;47.064;15.422;2023-05-10T05:54:00;20.43;;;6.97;;
21339;SDS011;10828;47.064;15.422;2023-05-10T05:56:28;13.00;;;6.03;;
21339;SDS011;10828;47.064;15.422;2023-05-10T05:58:55;12.57;;;5.50;;
21339;SDS011;10828;47.064;15.422;2023-05-10T06:01:21;16.93;;;5.90;;
21339;SDS011;10828;47.064;15.422;2023-05-10T06:03:46;19.43;;;5.50;;
21339;SDS011;10828;47.064;15.422;2023-05-10T06:06:12;14.30;;;5.70;;
21339;SDS011;10828;47.064;15.422;2023-05-10T06:08:39;10.83;;;5.20;;
21339;SDS011;10828;47.064;15.422;2023-05-10T06:11:05;20.10;;;5.70;;
21339;SDS011;10828;47.064;15.422;2023-05-10T06:13:31;27.87;;;6.63;;
21339;SDS011;10828;47.064;15.422;2023-05-10T06:15:58;20.17;;;6.77;;
21339;SDS011;10828;47.064;15.422;2023-05-10T06:18:24;15.47;;;7.00;;
21339;SDS011;10828;47.064;15.422;2023-05-10T06:20:50;15.07;;;5.37;;
21339;SDS011;10828;47.064;15.422;2023-05-10T06:23:16;10.97;;;5.17;;
21339;SDS011;10828;47.064;15.422;2023-05-10T06:25:43;11.10;;;5.23;;
21339;SDS011;10828;47.064;15.422;2023-05-10T06:28:09;15.03;;;5.97;;
21339;SDS011;10828;47.064;15.422;2023-05-10T06:30:35;23.00;;;5.70;;
21339;SDS011;10828;47.064;15.422;2023-05-10T06:33:02;19.57;;;6.10;;
21339;SDS011;10828;47.064;15.422;2023-05-10T06:35:28;24.43;;;6.93;;
21339;SDS011;10828;47.064;15.422;2023-05-10T06:37:58;15.90;;;7.57;;
21339;SDS011;10828;47.064;15.422;2023-05-10T06:40:24;12.33;;;6.53;;
21339;SDS011;10828;47.064;15.422;2023-05-10T06:42:50;19.57;;;5.97;;
21339;SDS011;10828;47.064;15.422;2023-05-10T06:45:17;20.40;;;6.33;;
21339;SDS011;10828;47.064;15.422;2023-05-10T06:47:42;12.17;;;6.23;;
21339;SDS011;10828;47.064;15.422;2023-05-10T06:50:08;12.47;;;5.50;;
21339;SDS011;10828;47.064;15.422;2023-05-10T06:52:36;15.70;;;6.77;;
21339;SDS011;10828;47.064;15.422;2023-05-10T06:55:05;14.00;;;6.23;;
21339;SDS011;10828;47.064;15.422;2023-05-10T06:57:31;17.70;;;6.23;;
21339;SDS011;10828;47.064;15.422;2023-05-10T06:59:58;11.70;;;5.87;;
21339;SDS011;10828;47.064;15.422;2023-05-10T07:02:24;15.27;;;6.00;;
21339;SDS011;10828;47.064;15.422;2023-05-10T07:04:50;13.37;;;6.20;;
21339;SDS011;10828;47.064;15.422;2023-05-10T07:07:16;23.53;;;6.63;;
21339;SDS011;10828;47.064;15.422;2023-05-10T07:09:42;17.17;;;6.63;;
21339;SDS011;10828;47.064;15.422;2023-05-10T07:12:08;14.47;;;6.17;;
21339;SDS011;10828;47.064;15.422;2023-05-10T07:14:34;12.83;;;5.77;;
21339;SDS011;10828;47.064;15.422;2023-05-10T07:16:59;14.83;;;6.10;;
21339;SDS011;10828;47.064;15.422;2023-05-10T07:19:27;14.50;;;5.80;;
21339;SDS011;10828;47.064;15.422;2023-05-10T07:21:55;16.53;;;6.20;;
21339;SDS011;10828;47.064;15.422;2023-05-10T07:24:21;27.90;;;7.67;;
21339;SDS011;10828;47.064;15.422;2023-05-10T07:26:46;26.70;;;11.53;;
21339;SDS011;10828;47.064;15.422;2023-05-10T07:29:12;14.20;;;6.33;;
21339;SDS011;10828;47.064;15.422;2023-05-10T07:31:46;23.13;;;6.17;;
21339;SDS011;10828;47.064;15.422;2023-05-10T07:34:12;15.60;;;7.33;;
21339;SDS011;10828;47.064;15.422;2023-05-10T07:36:41;16.87;;;6.60;;
21339;SDS011;10828;47.064;15.422;2023-05-10T07:39:10;12.77;;;6.33;;
21339;SDS011;10828;47.064;15.422;2023-05-10T07:41:39;22.93;;;7.23;;
21339;SDS011;10828;47.064;15.422;2023-05-10T07:44:05;15.93;;;6.30;;
21339;SDS011;10828;47.064;15.422;2023-05-10T07:46:31;18.03;;;7.20;;
21339;SDS011;10828;47.064;15.422;2023-05-10T07:48:56;12.07;;;6.57;;
21339;SDS011;10828;47.064;15.422;2023-05-10T07:51:22;17.57;;;6.60;;
21339;SDS011;10828;47.064;15.422;2023-05-10T07:53:48;17.47;;;7.67;;
21339;SDS011;10828;47.064;15.422;2023-05-10T07:58:54;13.77;;;6.53;;
21339;SDS011;10828;47.064;15.422;2023-05-10T08:01:20;15.63;;;6.20;;
21339;SDS011;10828;47.064;15.422;2023-05-10T08:03:48;15.60;;;6.00;;
21339;SDS011;10828;47.064;15.422;2023-05-10T08:06:17;14.97;;;6.97;;
21339;SDS011;10828;47.064;15.422;2023-05-10T08:08:43;13.77;;;6.17;;
21339;SDS011;10828;47.064;15.422;2023-05-10T08:11:16;12.03;;;6.43;;
21339;SDS011;10828;47.064;15.422;2023-05-10T08:13:53;16.10;;;6.87;;
21339;SDS011;10828;47.064;15.422;2023-05-10T08:16:19;16.83;;;6.70;;
21339;SDS011;10828;47.064;15.422;2023-05-10T08:18:45;14.13;;;6.50;;
21339;SDS011;10828;47.064;15.422;2023-05-10T08:21:11;13.40;;;6.80;;
21339;SDS011;10828;47.064;15.422;2023-05-10T08:23:40;15.37;;;6.80;;
21339;SDS011;10828;47.064;15.422;2023-05-10T08:26:09;17.13;;;7.13;;
21339;SDS011;10828;47.064;15.422;2023-05-10T08:28:34;11.33;;;5.97;;
21339;SDS011;10828;47.064;15.422;2023-05-10T08:31:00;16.73;;;6.13;;
21339;SDS011;10828;47.064;15.422;2023-05-10T08:33:26;10.43;;;5.70;;
21339;SDS011;10828;47.064;15.422;2023-05-10T08:35:52;12.03;;;6.27;;
21339;SDS011;10828;47.064;15.422;2023-05-10T08:38:18;10.47;;;4.50;;
21339;SDS011;10828;47.064;15.422;2023-05-10T08:40:46;20.63;;;6.10;;
21339;SDS011;10828;47.064;15.422;2023-05-10T08:43:23;20.23;;;5.50;;
21339;SDS011;10828;47.064;15.422;2023-05-10T08:45:54;18.87;;;7.53;;
21339;SDS011;10828;47.064;15.422;2023-05-10T08:48:25;13.70;;;5.90;;
21339;SDS011;10828;47.064;15.422;2023-05-10T08:50:53;17.43;;;5.90;;
21339;SDS011;10828;47.064;15.422;2023-05-10T08:53:24;8.93;;;4.77;;
21339;SDS011;10828;47.064;15.422;2023-05-10T08:55:52;20.70;;;5.80;;
21339;SDS011;10828;47.064;15.422;2023-05-10T08:58:18;17.43;;;6.70;;
21339;SDS011;10828;47.064;15.422;2023-05-10T09:00:45;14.37;;;5.60;;
21339;SDS011;10828;47.064;15.422;2023-05-10T09:03:12;13.90;;;5.60;;
21339;SDS011;10828;47.064;15.422;2023-05-10T09:05:39;13.97;;;5.03;;
21339;SDS011;10828;47.064;15.422;2023-05-10T09:08:07;13.00;;;4.70;;
21339;SDS011;10828;47.064;15.422;2023-05-10T09:10:42;10.57;;;5.07;;
21339;SDS011;10828;47.064;15.422;2023-05-10T09:13:14;14.80;;;4.70;;
21339;SDS011;10828;47.064;15.422;2023-05-10T09:15:41;10.57;;;4.80;;
21339;SDS011;10828;47.064;15.422;2023-05-10T09:18:10;9.10;;;5.03;;
21339;SDS011;10828;47.064;15.422;2023-05-10T09:20:57;17.23;;;4.73;;
21339;SDS011;10828;47.064;15.422;2023-05-10T09:23:24;11.07;;;4.33;;
21339;SDS011;10828;47.064;15.422;2023-05-10T09:26:06;9.57;;;5.10;;
21339;SDS011;10828;47.064;15.422;2023-05-10T09:28:58;11.33;;;5.37;;
21339;SDS011;10828;47.064;15.422;2023-05-10T09:31:23;12.13;;;5.30;;
21339;SDS011;10828;47.064;15.422;2023-05-10T09:33:53;14.97;;;5.10;;
21339;SDS011;10828;47.064;15.422;2023-05-10T09:36:26;9.03;;;4.73;;
21339;SDS011;10828;47.064;15.422;2023-05-10T09:38:53;11.63;;;5.40;;
21339;SDS011;10828;47.064;15.422;2023-05-10T09:41:20;15.20;;;5.40;;
21339;SDS011;10828;47.064;15.422;2023-05-10T09:44:00;11.17;;;4.60;;
21339;SDS011;10828;47.064;15.422;2023-05-10T09:46:28;10.27;;;4.70;;
21339;SDS011;10828;47.064;15.422;2023-05-10T09:49:09;11.03;;;5.23;;
21339;SDS011;10828;47.064;15.422;2023-05-10T09:51:39;11.40;;;4.93;;
21339;SDS011;10828;47.064;15.422;2023-05-10T09:54:13;8.53;;;4.43;;
21339;SDS011;10828;47.064;15.422;2023-05-10T09:56:43;11.33;;;5.43;;
21339;SDS011;10828;47.064;15.422;2023-05-10T09:59:11;11.23;;;4.73;;
21339;SDS011;10828;47.064;15.422;2023-05-10T10:01:39;9.20;;;4.23;;
21339;SDS011;10828;47.064;15.422;2023-05-10T10:04:25;13.03;;;5.10;;
21339;SDS011;10828;47.064;15.422;2023-05-10T10:07:02;13.03;;;6.07;;
21339;SDS011;10828;47.064;15.422;2023-05-10T10:09:29;12.90;;;5.40;;
21339;SDS011;10828;47.064;15.422;2023-05-10T10:11:56;9.67;;;4.57;;
21339;SDS011;10828;47.064;15.422;2023-05-10T10:14:22;9.50;;;4.93;;
21339;SDS011;10828;47.064;15.422;2023-05-10T10:16:50;11.13;;;5.07;;
21339;SDS011;10828;47.064;15.422;2023-05-10T10:19:16;12.80;;;5.10;;
21339;SDS011;10828;47.064;15.422;2023-05-10T10:21:46;10.67;;;5.27;;
21339;SDS011;10828;47.064;15.422;2023-05-10T10:24:15;10.93;;;4.57;;
21339;SDS011;10828;47.064;15.422;2023-05-10T10:26:50;13.27;;;5.27;;
21339;SDS011;10828;47.064;15.422;2023-05-10T10:34:29;8.27;;;4.80;;
21339;SDS011;10828;47.064;15.422;2023-05-10T10:36:57;8.93;;;4.90;;
21339;SDS011;10828;47.064;15.422;2023-05-10T10:39:30;9.13;;;4.80;;
21339;SDS011;10828;47.064;15.422;2023-05-10T10:41:56;9.43;;;4.77;;
21339;SDS011;10828;47.064;15.422;2023-05-10T10:44:26;10.50;;;5.30;;
21339;SDS011;10828;47.064;15.422;2023-05-10T10:49:38;13.60;;;5.47;;
21339;SDS011;10828;47.064;15.422;2023-05-10T10:52:26;12.60;;;5.33;;
21339;SDS011;10828;47.064;15.422;2023-05-10T10:55:06;10.80;;;5.70;;
21339;SDS011;10828;47.064;15.422;2023-05-10T10:57:54;13.30;;;5.43;;
21339;SDS011;10828;47.064;15.422;2023-05-10T11:00:36;10.70;;;6.10;;
21339;SDS011;10828;47.064;15.422;2023-05-10T11:03:09;11.13;;;6.13;;
21339;SDS011;10828;47.064;15.422;2023-05-10T11:13:54;27.90;;;7.57;;
21339;SDS011;10828;47.064;15.422;2023-05-10T11:16:40;13.33;;;5.70;;
21339;SDS011;10828;47.064;15.422;2023-05-10T11:19:08;10.30;;;6.00;;
21339;SDS011;10828;47.064;15.422;2023-05-10T11:21:52;13.83;;;6.23;;
21339;SDS011;10828;47.064;15.422;2023-05-10T11:24:40;12.60;;;6.37;;
21339;SDS011;10828;47.064;15.422;2023-05-10T11:27:25;9.93;;;5.33;;
21339;SDS011;10828;47.064;15.422;2023-05-10T11:29:51;10.63;;;5.57;;
21339;SDS011;10828;47.064;15.422;2023-05-10T11:32:19;9.30;;;5.60;;
21339;SDS011;10828;47.064;15.422;2023-05-10T11:34:46;10.33;;;5.90;;
21339;SDS011;10828;47.064;15.422;2023-05-10T11:37:13;14.03;;;5.57;;
21339;SDS011;10828;47.064;15.422;2023-05-10T11:39:38;30.87;;;6.13;;
21339;SDS011;10828;47.064;15.422;2023-05-10T11:42:14;14.93;;;6.10;;
21339;SDS011;10828;47.064;15.422;2023-05-10T11:44:40;12.13;;;6.27;;
21339;SDS011;10828;47.064;15.422;2023-05-10T11:47:06;8.33;;;5.17;;
21339;SDS011;10828;47.064;15.422;2023-05-10T11:49:32;11.43;;;5.10;;
21339;SDS011;10828;47.064;15.422;2023-05-10T11:52:05;11.93;;;5.63;;
21339;SDS011;10828;47.064;15.422;2023-05-10T11:54:31;10.47;;;5.90;;
21339;SDS011;10828;47.064;15.422;2023-05-10T11:56:59;11.13;;;5.90;;
21339;SDS011;10828;47.064;15.422;2023-05-10T11:59:25;10.47;;;5.67;;
21339;SDS011;10828;47.064;15.422;2023-05-10T12:01:51;16.83;;;6.10;;
21339;SDS011;10828;47.064;15.422;2023-05-10T12:04:16;14.77;;;6.17;;
21339;SDS011;10828;47.064;15.422;2023-05-10T12:06:42;19.70;;;6.47;;
21339;SDS011;10828;47.064;15.422;2023-05-10T12:09:08;15.33;;;5.93;;
21339;SDS011;10828;47.064;15.422;2023-05-10T12:11:37;23.80;;;6.67;;
21339;SDS011;10828;47.064;15.422;2023-05-10T12:14:05;15.50;;;6.00;;
21339;SDS011;10828;47.064;15.422;2023-05-10T12:16:30;14.07;;;7.40;;
21339;SDS011;10828;47.064;15.422;2023-05-10T12:18:58;18.43;;;6.50;;
21339;SDS011;10828;47.064;15.422;2023-05-10T12:21:26;11.07;;;5.50;;
21339;SDS011;10828;47.064;15.422;2023-05-10T12:23:56;14.43;;;6.37;;
21339;SDS011;10828;47.064;15.422;2023-05-10T12:26:26;23.67;;;6.13;;
21339;SDS011;10828;47.064;15.422;2023-05-10T12:28:54;20.37;;;6.10;;
21339;SDS011;10828;47.064;15.422;2023-05-10T12:31:20;15.10;;;6.83;;
21339;SDS011;10828;47.064;15.422;2023-05-10T12:33:46;11.03;;;5.30;;
21339;SDS011;10828;47.064;15.422;2023-05-10T12:36:14;14.17;;;4.63;;
21339;SDS011;10828;47.064;15.422;2023-05-10T12:41:10;13.50;;;5.40;;
21339;SDS011;10828;47.064;15.422;2023-05-10T12:43:39;14.43;;;6.47;;
21339;SDS011;10828;47.064;15.422;2023-05-10T12:46:08;17.17;;;6.40;;
21339;SDS011;10828;47.064;15.422;2023-05-10T12:48:59;10.67;;;5.33;;
21339;SDS011;10828;47.064;15.422;2023-05-10T12:51:28;11.33;;;5.20;;
21339;SDS011;10828;47.064;15.422;2023-05-10T12:53:53;8.70;;;5.43;;
21339;SDS011;10828;47.064;15.422;2023-05-10T12:56:22;12.47;;;5.00;;
21339;SDS011;10828;47.064;15.422;2023-05-10T12:58:53;21.40;;;6.07;;
21339;SDS011;10828;47.064;15.422;2023-05-10T13:01:21;17.20;;;5.33;;
21339;SDS011;10828;47.064;15.422;2023-05-10T13:03:47;14.23;;;5.20;;
21339;SDS011;10828;47.064;15.422;2023-05-10T13:06:15;20.30;;;5.47;;
21339;SDS011;10828;47.064;15.422;2023-05-10T13:08:41;24.60;;;6.73;;
21339;SDS011;10828;47.064;15.422;2023-05-10T13:11:06;14.43;;;5.57;;
21339;SDS011;10828;47.064;15.422;2023-05-10T13:13:32;13.40;;;5.80;;
21339;SDS011;10828;47.064;15.422;2023-05-10T13:15:58;19.47;;;5.40;;
21339;SDS011;10828;47.064;15.422;2023-05-10T13:18:23;15.30;;;5.80;;
21339;SDS011;10828;47.064;15.422;2023-05-10T13:20:49;13.03;;;5.63;;
21339;SDS011;10828;47.064;15.422;2023-05-10T13:23:16;12.70;;;5.57;;
21339;SDS011;10828;47.064;15.422;2023-05-10T13:25:42;12.70;;;6.17;;
21339;SDS011;10828;47.064;15.422;2023-05-10T13:28:08;16.27;;;5.63;;
21339;SDS011;10828;47.064;15.422;2023-05-10T13:30:33;11.53;;;6.00;;
21339;SDS011;10828;47.064;15.422;2023-05-10T13:32:59;15.73;;;5.23;;
21339;SDS011;10828;47.064;15.422;2023-05-10T13:35:26;15.10;;;5.17;;
21339;SDS011;10828;47.064;15.422;2023-05-10T13:37:51;21.50;;;10.00;;
21339;SDS011;10828;47.064;15.422;2023-05-10T13:40:19;10.30;;;5.10;;
21339;SDS011;10828;47.064;15.422;2023-05-10T13:42:44;13.03;;;5.00;;
21339;SDS011;10828;47.064;15.422;2023-05-10T13:45:10;17.17;;;5.87;;
21339;SDS011;10828;47.064;15.422;2023-05-10T13:47:37;14.53;;;5.60;;
21339;SDS011;10828;47.064;15.422;2023-05-10T13:50:02;14.47;;;5.83;;
21339;SDS011;10828;47.064;15.422;2023-05-10T13:52:28;21.17;;;6.17;;
21339;SDS011;10828;47.064;15.422;2023-05-10T13:54:54;13.30;;;5.67;;
21339;SDS011;10828;47.064;15.422;2023-05-10T13:57:21;15.50;;;5.43;;
21339;SDS011;10828;47.064;15.422;2023-05-10T13:59:48;17.00;;;5.30;;
21339;SDS011;10828;47.064;15.422;2023-05-10T14:02:20;17.00;;;6.20;;
21339;SDS011;10828;47.064;15.422;2023-05-10T14:04:45;11.03;;;5.23;;
21339;SDS011;10828;47.064;15.422;2023-05-10T14:07:11;9.10;;;5.20;;
21339;SDS011;10828;47.064;15.422;2023-05-10T14:09:37;11.27;;;5.53;;
21339;SDS011;10828;47.064;15.422;2023-05-10T14:12:03;9.37;;;4.87;;
21339;SDS011;10828;47.064;15.422;2023-05-10T14:14:29;16.00;;;5.00;;
21339;SDS011;10828;47.064;15.422;2023-05-10T14:16:55;8.77;;;5.17;;
21339;SDS011;10828;47.064;15.422;2023-05-10T14:19:20;10.33;;;4.87;;
21339;SDS011;10828;47.064;15.422;2023-05-10T14:21:46;12.60;;;5.83;;
21339;SDS011;10828;47.064;15.422;2023-05-10T14:24:12;9.10;;;5.50;;
21339;SDS011;10828;47.064;15.422;2023-05-10T14:26:37;11.07;;;6.07;;
21339;SDS011;10828;47.064;15.422;2023-05-10T14:29:04;11.03;;;5.33;;
21339;SDS011;10828;47.064;15.422;2023-05-10T14:31:30;14.33;;;5.83;;
21339;SDS011;10828;47.064;15.422;2023-05-10T14:33:56;10.47;;;5.37;;
21339;SDS011;10828;47.064;15.422;2023-05-10T14:36:22;12.50;;;5.87;;
21339;SDS011;10828;47.064;15.422;2023-05-10T14:38:48;16.77;;;6.97;;
21339;SDS011;10828;47.064;15.422;2023-05-10T14:41:14;20.93;;;6.37;;
21339;SDS011;10828;47.064;15.422;2023-05-10T14:43:42;14.50;;;5.53;;
21339;SDS011;10828;47.064;15.422;2023-05-10T14:46:08;8.23;;;5.10;;
21339;SDS011;10828;47.064;15.422;2023-05-10T14:48:33;11.23;;;5.10;;
21339;SDS011;10828;47.064;15.422;2023-05-10T14:50:59;11.33;;;4.93;;
21339;SDS011;10828;47.064;15.422;2023-05-10T14:53:25;12.40;;;5.33;;
21339;SDS011;10828;47.064;15.422;2023-05-10T14:55:51;7.77;;;5.13;;
21339;SDS011;10828;47.064;15.422;2023-05-10T14:58:17;13.90;;;5.57;;
21339;SDS011;10828;47.064;15.422;2023-05-10T15:00:42;12.83;;;5.37;;
21339;SDS011;10828;47.064;15.422;2023-05-10T15:03:10;17.37;;;4.77;;
21339;SDS011;10828;47.064;15.422;2023-05-10T15:05:38;9.40;;;4.83;;
21339;SDS011;10828;47.064;15.422;2023-05-10T15:08:04;7.73;;;4.47;;
21339;SDS011;10828;47.064;15.422;2023-05-10T15:10:30;12.83;;;4.47;;
21339;SDS011;10828;47.064;15.422;2023-05-10T15:12:57;8.93;;;4.60;;
21339;SDS011;10828;47.064;15.422;2023-05-10T15:15:22;9.43;;;4.67;;
21339;SDS011;10828;47.064;15.422;2023-05-10T15:17:48;13.70;;;5.10;;
21339;SDS011;10828;47.064;15.422;2023-05-10T15:20:16;21.93;;;5.63;;
21339;SDS011;10828;47.064;15.422;2023-05-10T15:22:43;7.63;;;4.00;;
21339;SDS011;10828;47.064;15.422;2023-05-10T15:25:08;7.00;;;3.90;;
21339;SDS011;10828;47.064;15.422;2023-05-10T15:27:34;8.37;;;4.30;;
21339;SDS011;10828;47.064;15.422;2023-05-10T15:30:00;7.90;;;4.30;;
21339;SDS011;10828;47.064;15.422;2023-05-10T15:32:26;7.73;;;4.10;;
21339;SDS011;10828;47.064;15.422;2023-05-10T15:34:52;7.90;;;4.00;;
21339;SDS011;10828;47.064;15.422;2023-05-10T15:37:18;7.97;;;4.93;;
21339;SDS011;10828;47.064;15.422;2023-05-10T15:39:43;8.80;;;4.50;;
21339;SDS011;10828;47.064;15.422;2023-05-10T15:42:09;9.47;;;3.83;;
21339;SDS011;10828;47.064;15.422;2023-05-10T15:44:36;7.97;;;4.70;;
21339;SDS011;10828;47.064;15.422;2023-05-10T15:47:03;9.67;;;4.20;;
21339;SDS011;10828;47.064;15.422;2023-05-10T15:49:29;9.40;;;4.93;;
21339;SDS011;10828;47.064;15.422;2023-05-10T15:51:55;8.97;;;4.30;;
21339;SDS011;10828;47.064;15.422;2023-05-10T15:54:21;8.87;;;5.00;;
21339;SDS011;10828;47.064;15.422;2023-05-10T15:56:46;8.87;;;4.90;;
21339;SDS011;10828;47.064;15.422;2023-05-10T15:59:14;8.07;;;4.50;;
21339;SDS011;10828;47.064;15.422;2023-05-10T16:01:39;7.10;;;4.13;;
21339;SDS011;10828;47.064;15.422;2023-05-10T16:04:06;8.57;;;4.30;;
21339;SDS011;10828;47.064;15.422;2023-05-10T16:06:32;8.93;;;4.90;;
21339;SDS011;10828;47.064;15.422;2023-05-10T16:08:58;8.73;;;4.37;;
21339;SDS011;10828;47.064;15.422;2023-05-10T16:11:24;10.03;;;4.80;;
21339;SDS011;10828;47.064;15.422;2023-05-10T16:13:50;5.60;;;3.90;;
21339;SDS011;10828;47.064;15.422;2023-05-10T16:16:17;11.60;;;5.27;;
21339;SDS011;10828;47.064;15.422;2023-05-10T16:18:42;24.90;;;6.10;;
21339;SDS011;10828;47.064;15.422;2023-05-10T16:21:08;12.67;;;4.80;;
21339;SDS011;10828;47.064;15.422;2023-05-10T16:23:33;13.87;;;4.70;;
21339;SDS011;10828;47.064;15.422;2023-05-10T16:26:01;12.93;;;5.07;;
21339;SDS011;10828;47.064;15.422;2023-05-10T16:28:30;10.87;;;4.83;;
21339;SDS011;10828;47.064;15.422;2023-05-10T16:30:58;10.03;;;4.37;;
21339;SDS011;10828;47.064;15.422;2023-05-10T16:33:24;10.60;;;4.43;;
21339;SDS011;10828;47.064;15.422;2023-05-10T16:35:49;11.80;;;4.30;;
21339;SDS011;10828;47.064;15.422;2023-05-10T16:38:16;15.07;;;4.43;;
21339;SDS011;10828;47.064;15.422;2023-05-10T16:40:41;16.03;;;5.00;;
21339;SDS011;10828;47.064;15.422;2023-05-10T16:43:07;10.43;;;4.60;;
21339;SDS011;10828;47.064;15.422;2023-05-10T16:45:33;10.40;;;4.47;;
21339;SDS011;10828;47.064;15.422;2023-05-10T16:47:58;10.37;;;4.83;;
21339;SDS011;10828;47.064;15.422;2023-05-10T16:50:24;10.83;;;5.10;;
21339;SDS011;10828;47.064;15.422;2023-05-10T16:52:51;17.90;;;6.13;;
21339;SDS011;10828;47.064;15.422;2023-05-10T16:55:16;7.00;;;3.87;;
21339;SDS011;10828;47.064;15.422;2023-05-10T16:57:42;9.67;;;4.00;;
21339;SDS011;10828;47.064;15.422;2023-05-10T17:00:08;9.10;;;3.47;;
21339;SDS011;10828;47.064;15.422;2023-05-10T17:02:35;10.57;;;4.17;;
21339;SDS011;10828;47.064;15.422;2023-05-10T17:05:01;10.30;;;4.03;;
21339;SDS011;10828;47.064;15.422;2023-05-10T17:07:27;11.83;;;3.90;;
21339;SDS011;10828;47.064;15.422;2023-05-10T17:09:54;13.40;;;3.50;;
21339;SDS011;10828;47.064;15.422;2023-05-10T17:12:20;11.70;;;4.17;;
21339;SDS011;10828;47.064;15.422;2023-05-10T17:14:46;11.93;;;4.27;;
21339;SDS011;10828;47.064;15.422;2023-05-10T17:17:11;10.50;;;3.63;;
21339;SDS011;10828;47.064;15.422;2023-05-10T17:19:37;9.97;;;3.63;;
21339;SDS011;10828;47.064;15.422;2023-05-10T17:22:07;10.00;;;4.10;;
21339;SDS011;10828;47.064;15.422;2023-05-10T17:24:32;14.40;;;3.93;;
21339;SDS011;10828;47.064;15.422;2023-05-10T17:26:59;17.57;;;4.00;;
21339;SDS011;10828;47.064;15.422;2023-05-10T17:29:27;12.80;;;3.93;;
21339;SDS011;10828;47.064;15.422;2023-05-10T17:31:53;10.20;;;4.00;;
21339;SDS011;10828;47.064;15.422;2023-05-10T17:34:19;9.87;;;3.63;;
21339;SDS011;10828;47.064;15.422;2023-05-10T17:36:45;12.50;;;3.83;;
21339;SDS011;10828;47.064;15.422;2023-05-10T17:39:12;7.13;;;3.50;;
21339;SDS011;10828;47.064;15.422;2023-05-10T17:41:40;6.53;;;3.63;;
21339;SDS011;10828;47.064;15.422;2023-05-10T17:44:06;13.77;;;4.20;;
21339;SDS011;10828;47.064;15.422;2023-05-10T17:46:31;8.53;;;3.47;;
21339;SDS011;10828;47.064;15.422;2023-05-10T17:48:59;13.90;;;4.17;;
21339;SDS011;10828;47.064;15.422;2023-05-10T17:51:25;8.87;;;3.70;;
21339;SDS011;10828;47.064;15.422;2023-05-10T17:53:51;11.80;;;4.00;;
21339;SDS011;10828;47.064;15.422;2023-05-10T17:56:16;8.03;;;3.27;;
21339;SDS011;10828;47.064;15.422;2023-05-10T17:58:42;9.27;;;3.47;;
21339;SDS011;10828;47.064;15.422;2023-05-10T18:01:08;12.23;;;3.60;;
21339;SDS011;10828;47.064;15.422;2023-05-10T18:03:34;10.93;;;3.63;;
21339;SDS011;10828;47.064;15.422;2023-05-10T18:06:03;12.83;;;3.90;;
21339;SDS011;10828;47.064;15.422;2023-05-10T18:08:31;15.30;;;4.07;;
21339;SDS011;10828;47.064;15.422;2023-05-10T18:10:57;6.73;;;2.97;;
21339;SDS011;10828;47.064;15.422;2023-05-10T18:13:23;10.17;;;2.93;;
21339;SDS011;10828;47.064;15.422;2023-05-10T18:15:49;7.30;;;3.33;;
21339;SDS011;10828;47.064;15.422;2023-05-10T18:18:16;9.03;;;2.90;;
21339;SDS011;10828;47.064;15.422;2023-05-10T18:20:41;10.17;;;3.03;;
21339;SDS011;10828;47.064;15.422;2023-05-10T18:23:07;11.53;;;3.87;;
21339;SDS011;10828;47.064;15.422;2023-05-10T18:25:33;7.60;;;3.70;;
21339;SDS011;10828;47.064;15.422;2023-05-10T18:27:59;8.77;;;4.00;;
21339;SDS011;10828;47.064;15.422;2023-05-10T18:30:26;11.87;;;4.00;;
21339;SDS011;10828;47.064;15.422;2023-05-10T18:32:52;7.83;;;3.43;;
21339;SDS011;10828;47.064;15.422;2023-05-10T18:35:19;12.40;;;4.33;;
21339;SDS011;10828;47.064;15.422;2023-05-10T18:37:46;15.00;;;4.20;;
21339;SDS011;10828;47.064;15.422;2023-05-10T18:40:12;11.80;;;4.80;;
21339;SDS011;10828;47.064;15.422;2023-05-10T18:42:38;8.00;;;4.23;;
21339;SDS011;10828;47.064;15.422;2023-05-10T18:45:05;9.33;;;3.93;;
21339;SDS011;10828;47.064;15.422;2023-05-10T18:47:33;7.47;;;3.50;;
21339;SDS011;10828;47.064;15.422;2023-05-10T18:49:58;15.10;;;4.20;;
21339;SDS011;10828;47.064;15.422;2023-05-10T18:52:24;12.10;;;4.13;;
21339;SDS011;10828;47.064;15.422;2023-05-10T18:54:50;5.90;;;3.70;;
21339;SDS011;10828;47.064;15.422;2023-05-10T18:57:16;17.37;;;4.53;;
21339;SDS011;10828;47.064;15.422;2023-05-10T18:59:43;8.23;;;3.97;;
21339;SDS011;10828;47.064;15.422;2023-05-10T19:02:11;9.73;;;3.90;;
21339;SDS011;10828;47.064;15.422;2023-05-10T19:04:38;7.00;;;3.70;;
21339;SDS011;10828;47.064;15.422;2023-05-10T19:07:06;8.23;;;4.07;;
21339;SDS011;10828;47.064;15.422;2023-05-10T19:09:34;9.37;;;4.60;;
21339;SDS011;10828;47.064;15.422;2023-05-10T19:12:02;10.07;;;4.33;;
21339;SDS011;10828;47.064;15.422;2023-05-10T19:14:35;10.97;;;4.17;;
21339;SDS011;10828;47.064;15.422;2023-05-10T19:17:03;7.73;;;4.20;;
21339;SDS011;10828;47.064;15.422;2023-05-10T19:19:33;10.93;;;4.70;;
21339;SDS011;10828;47.064;15.422;2023-05-10T19:22:01;15.13;;;4.50;;
21339;SDS011;10828;47.064;15.422;2023-05-10T19:24:27;9.07;;;4.53;;
21339;SDS011;10828;47.064;15.422;2023-05-10T19:26:55;8.43;;;4.20;;
21339;SDS011;10828;47.064;15.422;2023-05-10T19:29:23;10.30;;;4.50;;
21339;SDS011;10828;47.064;15.422;2023-05-10T19:31:54;12.03;;;4.20;;
21339;SDS011;10828;47.064;15.422;2023-05-10T19:34:21;8.63;;;4.20;;
21339;SDS011;10828;47.064;15.422;2023-05-10T19:36:49;8.77;;;4.27;;
21339;SDS011;10828;47.064;15.422;2023-05-10T19:39:15;9.60;;;4.10;;
21339;SDS011;10828;47.064;15.422;2023-05-10T19:41:42;9.97;;;4.17;;
21339;SDS011;10828;47.064;15.422;2023-05-10T19:44:09;9.00;;;4.20;;
21339;SDS011;10828;47.064;15.422;2023-05-10T19:46:38;8.57;;;4.27;;
21339;SDS011;10828;47.064;15.422;2023-05-10T19:49:07;8.03;;;3.90;;